Huvudsida
METAR-TAF:

METAR-TAF

Flygplatser :

Sarakhs, Iran

latitud: 36-30-04N, longitud: 061-03-54E, höjd: 288 m

Aktuellt väderrapport

Denna rapport gjordes för 41 minuter sedan, klockan 04:00 UTC
Vind 12 kt från väst/nordväst
Temperatur 8°C
Fuktighet 53%
Tryck 1021 hPa
Sikt 10 km eller mer
Brutna moln på en höjd av 1900 ft
Spridda moln på en höjd av 9000 ft

METAR: OIMC 200400Z 29012KT 9999 BKN019 SCT090 08/M01 Q1021

Tid: 08:11 (04:41 UTC)


TAF: saknas

Aktuella väderrapporter och prognoser från 4000 flygplatser (METAR- och TAF-rapporter).

De tillgängliga stationerna syns som gula och röda prickar på kartan.

För musen över prickarna för att se namnen på stationerna.

Klicka sedan för att få väderrapporter och prognoser.

För att ändra kartan: Klicka på de gröna knapparna med ett svart kors på för att zooma in; den gröna knappen med ett streck på för att zooma ut; eller på de gröna pilarna för angränsande kartor.


METAR-TAF: